sensor_id;sensor_type;location;lat;lon;timestamp;P1;durP1;ratioP1;P2;durP2;ratioP2
22468;SDS011;11401;50.792;4.352;2022-10-31T00:01:20;11.07;;;6.15;;
22468;SDS011;11401;50.792;4.352;2022-10-31T00:03:49;8.88;;;6.40;;
22468;SDS011;11401;50.792;4.352;2022-10-31T00:06:16;10.23;;;5.80;;
22468;SDS011;11401;50.792;4.352;2022-10-31T00:08:46;11.00;;;6.38;;
22468;SDS011;11401;50.792;4.352;2022-10-31T00:11:17;8.48;;;5.85;;
22468;SDS011;11401;50.792;4.352;2022-10-31T00:13:44;7.97;;;5.68;;
22468;SDS011;11401;50.792;4.352;2022-10-31T00:16:21;8.57;;;6.30;;
22468;SDS011;11401;50.792;4.352;2022-10-31T00:18:49;8.88;;;5.78;;
22468;SDS011;11401;50.792;4.352;2022-10-31T00:21:18;13.18;;;6.07;;
22468;SDS011;11401;50.792;4.352;2022-10-31T00:23:45;9.15;;;5.32;;
22468;SDS011;11401;50.792;4.352;2022-10-31T00:26:13;12.02;;;5.25;;
22468;SDS011;11401;50.792;4.352;2022-10-31T00:28:40;5.85;;;4.80;;
22468;SDS011;11401;50.792;4.352;2022-10-31T00:31:07;8.07;;;4.82;;
22468;SDS011;11401;50.792;4.352;2022-10-31T00:33:36;9.30;;;5.68;;
22468;SDS011;11401;50.792;4.352;2022-10-31T00:36:04;9.93;;;5.60;;
22468;SDS011;11401;50.792;4.352;2022-10-31T00:38:32;8.45;;;5.78;;
22468;SDS011;11401;50.792;4.352;2022-10-31T00:40:59;5.90;;;4.85;;
22468;SDS011;11401;50.792;4.352;2022-10-31T00:43:26;6.18;;;5.03;;
22468;SDS011;11401;50.792;4.352;2022-10-31T00:45:53;7.43;;;5.72;;
22468;SDS011;11401;50.792;4.352;2022-10-31T00:48:23;9.32;;;5.55;;
22468;SDS011;11401;50.792;4.352;2022-10-31T00:50:51;6.53;;;4.90;;
22468;SDS011;11401;50.792;4.352;2022-10-31T00:53:18;6.65;;;5.07;;
22468;SDS011;11401;50.792;4.352;2022-10-31T00:55:45;6.38;;;5.10;;
22468;SDS011;11401;50.792;4.352;2022-10-31T00:58:13;6.97;;;5.25;;
22468;SDS011;11401;50.792;4.352;2022-10-31T01:00:48;8.13;;;5.82;;
22468;SDS011;11401;50.792;4.352;2022-10-31T01:03:25;7.85;;;5.43;;
22468;SDS011;11401;50.792;4.352;2022-10-31T01:05:55;7.05;;;4.68;;
22468;SDS011;11401;50.792;4.352;2022-10-31T01:08:26;6.93;;;4.72;;
22468;SDS011;11401;50.792;4.352;2022-10-31T01:10:57;7.95;;;5.28;;
22468;SDS011;11401;50.792;4.352;2022-10-31T01:13:34;9.93;;;5.10;;
22468;SDS011;11401;50.792;4.352;2022-10-31T01:16:01;7.00;;;4.93;;
22468;SDS011;11401;50.792;4.352;2022-10-31T01:18:31;8.90;;;5.05;;
22468;SDS011;11401;50.792;4.352;2022-10-31T01:21:21;8.07;;;4.82;;
22468;SDS011;11401;50.792;4.352;2022-10-31T01:23:48;10.07;;;5.15;;
22468;SDS011;11401;50.792;4.352;2022-10-31T01:26:17;7.13;;;4.90;;
22468;SDS011;11401;50.792;4.352;2022-10-31T01:31:20;7.00;;;5.03;;
22468;SDS011;11401;50.792;4.352;2022-10-31T01:33:49;9.45;;;5.57;;
22468;SDS011;11401;50.792;4.352;2022-10-31T01:36:24;6.95;;;5.00;;
22468;SDS011;11401;50.792;4.352;2022-10-31T01:38:55;7.25;;;4.97;;
22468;SDS011;11401;50.792;4.352;2022-10-31T01:41:25;5.78;;;4.70;;
22468;SDS011;11401;50.792;4.352;2022-10-31T01:43:57;8.45;;;4.82;;
22468;SDS011;11401;50.792;4.352;2022-10-31T01:46:40;9.27;;;5.05;;
22468;SDS011;11401;50.792;4.352;2022-10-31T01:49:09;6.95;;;5.28;;
22468;SDS011;11401;50.792;4.352;2022-10-31T01:51:42;9.75;;;4.90;;
22468;SDS011;11401;50.792;4.352;2022-10-31T01:54:15;9.05;;;5.15;;
22468;SDS011;11401;50.792;4.352;2022-10-31T01:56:47;7.75;;;5.03;;
22468;SDS011;11401;50.792;4.352;2022-10-31T01:59:17;7.30;;;4.90;;
22468;SDS011;11401;50.792;4.352;2022-10-31T02:01:47;7.35;;;5.18;;
22468;SDS011;11401;50.792;4.352;2022-10-31T02:04:16;8.30;;;5.38;;
22468;SDS011;11401;50.792;4.352;2022-10-31T02:06:47;7.97;;;4.88;;
22468;SDS011;11401;50.792;4.352;2022-10-31T02:09:17;5.80;;;4.63;;
22468;SDS011;11401;50.792;4.352;2022-10-31T02:11:51;7.70;;;4.57;;
22468;SDS011;11401;50.792;4.352;2022-10-31T02:14:21;6.00;;;5.03;;
22468;SDS011;11401;50.792;4.352;2022-10-31T02:16:50;9.73;;;5.13;;
22468;SDS011;11401;50.792;4.352;2022-10-31T02:19:19;6.22;;;4.70;;
22468;SDS011;11401;50.792;4.352;2022-10-31T02:22:09;5.53;;;4.40;;
22468;SDS011;11401;50.792;4.352;2022-10-31T02:28:08;8.25;;;4.68;;
22468;SDS011;11401;50.792;4.352;2022-10-31T02:31:08;7.47;;;5.38;;
22468;SDS011;11401;50.792;4.352;2022-10-31T02:33:59;5.22;;;4.75;;
22468;SDS011;11401;50.792;4.352;2022-10-31T02:37:09;8.75;;;5.95;;
22468;SDS011;11401;50.792;4.352;2022-10-31T02:48:28;7.03;;;5.10;;
22468;SDS011;11401;50.792;4.352;2022-10-31T02:50:58;5.70;;;4.75;;
22468;SDS011;11401;50.792;4.352;2022-10-31T02:53:31;6.65;;;4.75;;
22468;SDS011;11401;50.792;4.352;2022-10-31T02:56:04;5.45;;;4.65;;
22468;SDS011;11401;50.792;4.352;2022-10-31T02:58:50;8.55;;;4.82;;
22468;SDS011;11401;50.792;4.352;2022-10-31T03:03:59;8.32;;;4.80;;
22468;SDS011;11401;50.792;4.352;2022-10-31T03:06:33;7.68;;;5.07;;
22468;SDS011;11401;50.792;4.352;2022-10-31T03:09:10;8.98;;;5.00;;
22468;SDS011;11401;50.792;4.352;2022-10-31T03:14:43;7.70;;;5.03;;
22468;SDS011;11401;50.792;4.352;2022-10-31T03:17:22;7.22;;;4.57;;
22468;SDS011;11401;50.792;4.352;2022-10-31T03:19:59;6.05;;;4.78;;
22468;SDS011;11401;50.792;4.352;2022-10-31T03:22:29;7.25;;;4.63;;
22468;SDS011;11401;50.792;4.352;2022-10-31T03:25:00;5.25;;;4.03;;
22468;SDS011;11401;50.792;4.352;2022-10-31T03:27:32;7.40;;;5.03;;
22468;SDS011;11401;50.792;4.352;2022-10-31T03:30:02;4.68;;;4.15;;
22468;SDS011;11401;50.792;4.352;2022-10-31T03:32:41;7.40;;;4.80;;
22468;SDS011;11401;50.792;4.352;2022-10-31T03:35:18;8.65;;;4.65;;
22468;SDS011;11401;50.792;4.352;2022-10-31T03:37:49;9.85;;;4.72;;
22468;SDS011;11401;50.792;4.352;2022-10-31T03:40:19;6.20;;;5.30;;
22468;SDS011;11401;50.792;4.352;2022-10-31T03:42:51;7.30;;;4.43;;
22468;SDS011;11401;50.792;4.352;2022-10-31T03:45:23;5.95;;;5.00;;
22468;SDS011;11401;50.792;4.352;2022-10-31T03:47:53;7.97;;;4.28;;
22468;SDS011;11401;50.792;4.352;2022-10-31T03:50:20;6.43;;;5.00;;
22468;SDS011;11401;50.792;4.352;2022-10-31T03:52:53;5.55;;;4.32;;
22468;SDS011;11401;50.792;4.352;2022-10-31T03:55:28;6.43;;;4.82;;
22468;SDS011;11401;50.792;4.352;2022-10-31T03:58:06;6.68;;;4.32;;
22468;SDS011;11401;50.792;4.352;2022-10-31T04:00:45;6.68;;;3.92;;
22468;SDS011;11401;50.792;4.352;2022-10-31T04:03:16;9.98;;;4.53;;
22468;SDS011;11401;50.792;4.352;2022-10-31T04:05:49;8.40;;;4.45;;
22468;SDS011;11401;50.792;4.352;2022-10-31T04:08:20;8.15;;;5.30;;
22468;SDS011;11401;50.792;4.352;2022-10-31T04:10:51;6.45;;;4.90;;
22468;SDS011;11401;50.792;4.352;2022-10-31T04:13:22;5.03;;;4.45;;
22468;SDS011;11401;50.792;4.352;2022-10-31T04:16:00;5.80;;;4.25;;
22468;SDS011;11401;50.792;4.352;2022-10-31T04:18:27;5.15;;;4.18;;
22468;SDS011;11401;50.792;4.352;2022-10-31T04:21:01;5.60;;;4.05;;
22468;SDS011;11401;50.792;4.352;2022-10-31T04:23:31;5.55;;;4.43;;
22468;SDS011;11401;50.792;4.352;2022-10-31T04:26:01;4.95;;;3.83;;
22468;SDS011;11401;50.792;4.352;2022-10-31T04:28:28;9.43;;;4.85;;
22468;SDS011;11401;50.792;4.352;2022-10-31T04:30:55;4.47;;;4.07;;
22468;SDS011;11401;50.792;4.352;2022-10-31T04:33:22;6.35;;;4.20;;
22468;SDS011;11401;50.792;4.352;2022-10-31T04:35:49;6.18;;;4.25;;
22468;SDS011;11401;50.792;4.352;2022-10-31T04:38:17;4.97;;;4.30;;
22468;SDS011;11401;50.792;4.352;2022-10-31T04:40:44;7.07;;;4.20;;
22468;SDS011;11401;50.792;4.352;2022-10-31T04:43:32;4.63;;;4.20;;
22468;SDS011;11401;50.792;4.352;2022-10-31T04:45:59;5.00;;;4.22;;
22468;SDS011;11401;50.792;4.352;2022-10-31T04:48:27;4.75;;;4.35;;
22468;SDS011;11401;50.792;4.352;2022-10-31T04:50:58;6.53;;;4.00;;
22468;SDS011;11401;50.792;4.352;2022-10-31T04:53:28;5.82;;;4.30;;
22468;SDS011;11401;50.792;4.352;2022-10-31T04:56:14;6.68;;;4.35;;
22468;SDS011;11401;50.792;4.352;2022-10-31T04:58:44;7.53;;;4.10;;
22468;SDS011;11401;50.792;4.352;2022-10-31T05:01:12;5.68;;;3.70;;
22468;SDS011;11401;50.792;4.352;2022-10-31T05:03:39;4.55;;;4.07;;
22468;SDS011;11401;50.792;4.352;2022-10-31T05:06:06;4.80;;;4.00;;
22468;SDS011;11401;50.792;4.352;2022-10-31T05:08:36;5.45;;;3.60;;
22468;SDS011;11401;50.792;4.352;2022-10-31T05:11:05;4.90;;;4.20;;
22468;SDS011;11401;50.792;4.352;2022-10-31T05:13:33;5.22;;;4.25;;
22468;SDS011;11401;50.792;4.352;2022-10-31T05:15:59;4.57;;;3.75;;
22468;SDS011;11401;50.792;4.352;2022-10-31T05:18:45;6.07;;;3.80;;
22468;SDS011;11401;50.792;4.352;2022-10-31T05:21:31;7.88;;;4.13;;
22468;SDS011;11401;50.792;4.352;2022-10-31T05:24:00;7.80;;;3.60;;
22468;SDS011;11401;50.792;4.352;2022-10-31T05:26:28;4.38;;;3.45;;
22468;SDS011;11401;50.792;4.352;2022-10-31T05:28:55;7.28;;;3.70;;
22468;SDS011;11401;50.792;4.352;2022-10-31T05:31:22;5.60;;;4.22;;
22468;SDS011;11401;50.792;4.352;2022-10-31T05:33:50;3.38;;;3.08;;
22468;SDS011;11401;50.792;4.352;2022-10-31T05:36:32;7.75;;;4.25;;
22468;SDS011;11401;50.792;4.352;2022-10-31T05:39:02;6.82;;;4.15;;
22468;SDS011;11401;50.792;4.352;2022-10-31T05:41:34;4.75;;;3.50;;
22468;SDS011;11401;50.792;4.352;2022-10-31T05:44:05;4.05;;;3.40;;
22468;SDS011;11401;50.792;4.352;2022-10-31T05:46:43;4.65;;;3.70;;
22468;SDS011;11401;50.792;4.352;2022-10-31T05:49:18;6.70;;;3.75;;
22468;SDS011;11401;50.792;4.352;2022-10-31T05:52:14;8.50;;;4.50;;
22468;SDS011;11401;50.792;4.352;2022-10-31T05:54:49;4.53;;;3.72;;
22468;SDS011;11401;50.792;4.352;2022-10-31T05:57:16;5.97;;;4.30;;
22468;SDS011;11401;50.792;4.352;2022-10-31T05:59:44;4.85;;;3.78;;
22468;SDS011;11401;50.792;4.352;2022-10-31T06:02:17;6.05;;;3.65;;
22468;SDS011;11401;50.792;4.352;2022-10-31T06:05:03;4.95;;;3.67;;
22468;SDS011;11401;50.792;4.352;2022-10-31T06:07:31;4.95;;;3.60;;
22468;SDS011;11401;50.792;4.352;2022-10-31T06:10:05;5.63;;;3.88;;
22468;SDS011;11401;50.792;4.352;2022-10-31T06:12:34;6.55;;;3.75;;
22468;SDS011;11401;50.792;4.352;2022-10-31T06:15:15;6.25;;;3.90;;
22468;SDS011;11401;50.792;4.352;2022-10-31T06:17:59;4.53;;;4.03;;
22468;SDS011;11401;50.792;4.352;2022-10-31T06:20:29;4.47;;;4.03;;
22468;SDS011;11401;50.792;4.352;2022-10-31T06:23:01;6.20;;;3.47;;
22468;SDS011;11401;50.792;4.352;2022-10-31T06:25:31;7.07;;;4.32;;
22468;SDS011;11401;50.792;4.352;2022-10-31T06:27:59;4.10;;;3.47;;
22468;SDS011;11401;50.792;4.352;2022-10-31T06:30:39;5.93;;;4.10;;
22468;SDS011;11401;50.792;4.352;2022-10-31T06:33:07;5.28;;;3.88;;
22468;SDS011;11401;50.792;4.352;2022-10-31T06:35:37;4.93;;;3.83;;
22468;SDS011;11401;50.792;4.352;2022-10-31T06:38:04;4.43;;;4.03;;
22468;SDS011;11401;50.792;4.352;2022-10-31T06:40:36;7.63;;;4.38;;
22468;SDS011;11401;50.792;4.352;2022-10-31T06:43:29;6.78;;;4.43;;
22468;SDS011;11401;50.792;4.352;2022-10-31T06:46:26;7.60;;;4.30;;
22468;SDS011;11401;50.792;4.352;2022-10-31T06:49:19;5.22;;;4.47;;
22468;SDS011;11401;50.792;4.352;2022-10-31T06:51:53;7.60;;;4.15;;
22468;SDS011;11401;50.792;4.352;2022-10-31T06:54:20;9.48;;;4.85;;
22468;SDS011;11401;50.792;4.352;2022-10-31T06:56:47;5.90;;;4.68;;
22468;SDS011;11401;50.792;4.352;2022-10-31T06:59:15;9.20;;;4.45;;
22468;SDS011;11401;50.792;4.352;2022-10-31T07:02:07;6.13;;;4.13;;
22468;SDS011;11401;50.792;4.352;2022-10-31T07:04:37;9.63;;;5.07;;
22468;SDS011;11401;50.792;4.352;2022-10-31T07:07:04;7.82;;;4.85;;
22468;SDS011;11401;50.792;4.352;2022-10-31T07:09:33;8.45;;;5.10;;
22468;SDS011;11401;50.792;4.352;2022-10-31T07:12:02;8.45;;;4.95;;
22468;SDS011;11401;50.792;4.352;2022-10-31T07:14:31;7.30;;;5.38;;
22468;SDS011;11401;50.792;4.352;2022-10-31T07:16:59;7.55;;;5.35;;
22468;SDS011;11401;50.792;4.352;2022-10-31T07:19:39;10.30;;;6.00;;
22468;SDS011;11401;50.792;4.352;2022-10-31T07:22:07;8.82;;;5.57;;
22468;SDS011;11401;50.792;4.352;2022-10-31T07:24:36;9.65;;;6.60;;
22468;SDS011;11401;50.792;4.352;2022-10-31T07:27:11;11.60;;;6.15;;
22468;SDS011;11401;50.792;4.352;2022-10-31T07:29:38;8.00;;;6.63;;
22468;SDS011;11401;50.792;4.352;2022-10-31T07:32:07;9.13;;;7.07;;
22468;SDS011;11401;50.792;4.352;2022-10-31T07:34:38;11.98;;;6.63;;
22468;SDS011;11401;50.792;4.352;2022-10-31T07:37:35;8.25;;;6.15;;
22468;SDS011;11401;50.792;4.352;2022-10-31T07:40:03;11.82;;;6.53;;
22468;SDS011;11401;50.792;4.352;2022-10-31T07:42:37;9.48;;;6.45;;
22468;SDS011;11401;50.792;4.352;2022-10-31T07:45:13;11.45;;;6.03;;
22468;SDS011;11401;50.792;4.352;2022-10-31T07:48:02;12.35;;;6.07;;
22468;SDS011;11401;50.792;4.352;2022-10-31T07:50:47;9.85;;;5.90;;
22468;SDS011;11401;50.792;4.352;2022-10-31T07:53:33;8.75;;;6.13;;
22468;SDS011;11401;50.792;4.352;2022-10-31T07:56:10;9.27;;;5.30;;
22468;SDS011;11401;50.792;4.352;2022-10-31T07:58:37;9.63;;;5.93;;
22468;SDS011;11401;50.792;4.352;2022-10-31T08:01:04;8.65;;;6.15;;
22468;SDS011;11401;50.792;4.352;2022-10-31T08:03:39;10.82;;;6.00;;
22468;SDS011;11401;50.792;4.352;2022-10-31T08:06:09;10.82;;;5.93;;
22468;SDS011;11401;50.792;4.352;2022-10-31T08:08:42;8.90;;;6.07;;
22468;SDS011;11401;50.792;4.352;2022-10-31T08:11:09;8.18;;;5.25;;
22468;SDS011;11401;50.792;4.352;2022-10-31T08:13:37;10.13;;;6.25;;
22468;SDS011;11401;50.792;4.352;2022-10-31T08:16:04;9.43;;;6.80;;
22468;SDS011;11401;50.792;4.352;2022-10-31T08:18:41;8.57;;;5.97;;
22468;SDS011;11401;50.792;4.352;2022-10-31T08:21:14;7.35;;;5.82;;
22468;SDS011;11401;50.792;4.352;2022-10-31T08:23:43;7.65;;;5.95;;
22468;SDS011;11401;50.792;4.352;2022-10-31T08:26:10;9.35;;;5.47;;
22468;SDS011;11401;50.792;4.352;2022-10-31T08:28:38;6.28;;;4.93;;
22468;SDS011;11401;50.792;4.352;2022-10-31T08:31:05;8.05;;;5.30;;
22468;SDS011;11401;50.792;4.352;2022-10-31T08:33:37;9.63;;;5.00;;
22468;SDS011;11401;50.792;4.352;2022-10-31T08:36:25;7.38;;;5.25;;
22468;SDS011;11401;50.792;4.352;2022-10-31T08:39:13;6.95;;;5.20;;
22468;SDS011;11401;50.792;4.352;2022-10-31T08:41:40;7.13;;;4.72;;
22468;SDS011;11401;50.792;4.352;2022-10-31T08:44:10;9.43;;;5.05;;
22468;SDS011;11401;50.792;4.352;2022-10-31T08:46:37;10.07;;;5.50;;
22468;SDS011;11401;50.792;4.352;2022-10-31T08:49:04;8.73;;;5.40;;
22468;SDS011;11401;50.792;4.352;2022-10-31T08:51:33;7.85;;;5.60;;
22468;SDS011;11401;50.792;4.352;2022-10-31T08:54:00;6.35;;;4.95;;
22468;SDS011;11401;50.792;4.352;2022-10-31T08:56:46;9.00;;;4.57;;
22468;SDS011;11401;50.792;4.352;2022-10-31T08:59:48;7.68;;;5.07;;
22468;SDS011;11401;50.792;4.352;2022-10-31T09:02:23;12.05;;;5.10;;
22468;SDS011;11401;50.792;4.352;2022-10-31T09:04:56;10.30;;;4.47;;
22468;SDS011;11401;50.792;4.352;2022-10-31T09:07:24;7.28;;;4.88;;
22468;SDS011;11401;50.792;4.352;2022-10-31T09:09:52;7.60;;;4.63;;
22468;SDS011;11401;50.792;4.352;2022-10-31T09:12:19;5.63;;;4.35;;
22468;SDS011;11401;50.792;4.352;2022-10-31T09:15:05;6.80;;;4.65;;
22468;SDS011;11401;50.792;4.352;2022-10-31T09:17:49;6.03;;;4.72;;
22468;SDS011;11401;50.792;4.352;2022-10-31T09:20:25;10.18;;;4.97;;
22468;SDS011;11401;50.792;4.352;2022-10-31T09:22:56;6.80;;;4.68;;
22468;SDS011;11401;50.792;4.352;2022-10-31T09:25:24;7.18;;;4.35;;
22468;SDS011;11401;50.792;4.352;2022-10-31T09:28:13;7.85;;;4.60;;
22468;SDS011;11401;50.792;4.352;2022-10-31T09:30:45;6.65;;;4.93;;
22468;SDS011;11401;50.792;4.352;2022-10-31T09:33:20;6.28;;;4.82;;
22468;SDS011;11401;50.792;4.352;2022-10-31T09:36:11;5.70;;;4.20;;
22468;SDS011;11401;50.792;4.352;2022-10-31T09:38:40;6.65;;;4.70;;
22468;SDS011;11401;50.792;4.352;2022-10-31T09:41:12;12.82;;;5.15;;
22468;SDS011;11401;50.792;4.352;2022-10-31T09:52:29;7.95;;;4.65;;
22468;SDS011;11401;50.792;4.352;2022-10-31T09:55:04;9.65;;;5.03;;
22468;SDS011;11401;50.792;4.352;2022-10-31T09:57:56;8.65;;;5.07;;
22468;SDS011;11401;50.792;4.352;2022-10-31T10:00:25;7.50;;;5.18;;
22468;SDS011;11401;50.792;4.352;2022-10-31T10:03:38;7.22;;;5.13;;
22468;SDS011;11401;50.792;4.352;2022-10-31T10:06:27;5.78;;;4.88;;
22468;SDS011;11401;50.792;4.352;2022-10-31T10:09:22;10.68;;;4.63;;
22468;SDS011;11401;50.792;4.352;2022-10-31T10:17:54;6.57;;;5.00;;
22468;SDS011;11401;50.792;4.352;2022-10-31T10:20:43;9.68;;;5.20;;
22468;SDS011;11401;50.792;4.352;2022-10-31T10:25:52;8.48;;;5.72;;
22468;SDS011;11401;50.792;4.352;2022-10-31T10:28:35;6.97;;;5.32;;
22468;SDS011;11401;50.792;4.352;2022-10-31T10:31:10;14.00;;;5.97;;
22468;SDS011;11401;50.792;4.352;2022-10-31T10:36:47;7.13;;;5.20;;
22468;SDS011;11401;50.792;4.352;2022-10-31T10:39:22;6.95;;;5.35;;
22468;SDS011;11401;50.792;4.352;2022-10-31T10:41:53;16.58;;;7.05;;
22468;SDS011;11401;50.792;4.352;2022-10-31T10:44:43;11.10;;;5.65;;
22468;SDS011;11401;50.792;4.352;2022-10-31T10:47:44;9.23;;;6.35;;
22468;SDS011;11401;50.792;4.352;2022-10-31T10:50:19;9.30;;;5.53;;
22468;SDS011;11401;50.792;4.352;2022-10-31T10:52:50;13.50;;;6.70;;
22468;SDS011;11401;50.792;4.352;2022-10-31T10:58:03;8.20;;;6.28;;
22468;SDS011;11401;50.792;4.352;2022-10-31T11:00:40;10.23;;;6.40;;
22468;SDS011;11401;50.792;4.352;2022-10-31T11:03:09;13.18;;;6.40;;
22468;SDS011;11401;50.792;4.352;2022-10-31T11:08:26;14.00;;;7.63;;
22468;SDS011;11401;50.792;4.352;2022-10-31T11:13:42;14.20;;;7.18;;
22468;SDS011;11401;50.792;4.352;2022-10-31T11:16:32;8.48;;;6.38;;
22468;SDS011;11401;50.792;4.352;2022-10-31T11:19:07;10.25;;;5.97;;
22468;SDS011;11401;50.792;4.352;2022-10-31T11:21:46;10.95;;;6.05;;
22468;SDS011;11401;50.792;4.352;2022-10-31T11:24:23;10.70;;;6.47;;
22468;SDS011;11401;50.792;4.352;2022-10-31T11:27:03;13.13;;;6.90;;
22468;SDS011;11401;50.792;4.352;2022-10-31T11:29:40;12.38;;;6.50;;
22468;SDS011;11401;50.792;4.352;2022-10-31T11:32:08;11.77;;;6.35;;
22468;SDS011;11401;50.792;4.352;2022-10-31T11:34:51;17.80;;;6.28;;
22468;SDS011;11401;50.792;4.352;2022-10-31T11:37:24;10.02;;;6.55;;
22468;SDS011;11401;50.792;4.352;2022-10-31T11:39:57;8.60;;;5.95;;
22468;SDS011;11401;50.792;4.352;2022-10-31T11:42:28;9.23;;;5.95;;
22468;SDS011;11401;50.792;4.352;2022-10-31T11:45:06;8.75;;;6.05;;
22468;SDS011;11401;50.792;4.352;2022-10-31T11:47:46;11.35;;;6.75;;
22468;SDS011;11401;50.792;4.352;2022-10-31T11:50:19;11.85;;;5.75;;
22468;SDS011;11401;50.792;4.352;2022-10-31T11:52:52;13.68;;;6.18;;
22468;SDS011;11401;50.792;4.352;2022-10-31T11:55:31;14.20;;;6.80;;
22468;SDS011;11401;50.792;4.352;2022-10-31T11:58:03;13.18;;;6.30;;
22468;SDS011;11401;50.792;4.352;2022-10-31T12:00:36;11.70;;;7.10;;
22468;SDS011;11401;50.792;4.352;2022-10-31T12:03:13;18.00;;;7.22;;
22468;SDS011;11401;50.792;4.352;2022-10-31T12:05:47;11.63;;;6.20;;
22468;SDS011;11401;50.792;4.352;2022-10-31T12:08:20;12.98;;;6.60;;
22468;SDS011;11401;50.792;4.352;2022-10-31T12:10:52;17.00;;;6.57;;
22468;SDS011;11401;50.792;4.352;2022-10-31T12:13:32;14.23;;;6.55;;
22468;SDS011;11401;50.792;4.352;2022-10-31T12:19:03;13.82;;;6.72;;
22468;SDS011;11401;50.792;4.352;2022-10-31T12:29:55;9.57;;;5.10;;
22468;SDS011;11401;50.792;4.352;2022-10-31T12:49:27;13.40;;;5.47;;
22468;SDS011;11401;50.792;4.352;2022-10-31T12:57:44;9.10;;;4.53;;
22468;SDS011;11401;50.792;4.352;2022-10-31T13:00:18;9.63;;;5.32;;
22468;SDS011;11401;50.792;4.352;2022-10-31T13:02:49;11.30;;;5.15;;
22468;SDS011;11401;50.792;4.352;2022-10-31T13:08:02;11.07;;;5.97;;
22468;SDS011;11401;50.792;4.352;2022-10-31T13:16:10;8.35;;;4.35;;
22468;SDS011;11401;50.792;4.352;2022-10-31T13:19:04;9.13;;;6.20;;
22468;SDS011;11401;50.792;4.352;2022-10-31T13:24:16;10.20;;;4.97;;
22468;SDS011;11401;50.792;4.352;2022-10-31T13:26:48;7.40;;;5.22;;
22468;SDS011;11401;50.792;4.352;2022-10-31T13:29:20;9.05;;;4.93;;
22468;SDS011;11401;50.792;4.352;2022-10-31T13:31:56;13.32;;;7.38;;
22468;SDS011;11401;50.792;4.352;2022-10-31T13:34:31;19.77;;;7.07;;
22468;SDS011;11401;50.792;4.352;2022-10-31T13:37:36;11.68;;;5.95;;
22468;SDS011;11401;50.792;4.352;2022-10-31T13:40:11;14.35;;;6.00;;
22468;SDS011;11401;50.792;4.352;2022-10-31T13:45:19;10.63;;;5.47;;
22468;SDS011;11401;50.792;4.352;2022-10-31T13:48:16;10.85;;;5.82;;
22468;SDS011;11401;50.792;4.352;2022-10-31T13:50:58;12.38;;;5.63;;
22468;SDS011;11401;50.792;4.352;2022-10-31T13:53:38;17.95;;;6.03;;
22468;SDS011;11401;50.792;4.352;2022-10-31T13:58:35;12.82;;;5.30;;
22468;SDS011;11401;50.792;4.352;2022-10-31T14:01:21;8.63;;;4.95;;
22468;SDS011;11401;50.792;4.352;2022-10-31T14:04:12;8.82;;;5.13;;
22468;SDS011;11401;50.792;4.352;2022-10-31T14:07:09;9.23;;;4.80;;
22468;SDS011;11401;50.792;4.352;2022-10-31T14:09:41;10.68;;;4.68;;
22468;SDS011;11401;50.792;4.352;2022-10-31T14:12:27;7.68;;;5.10;;
22468;SDS011;11401;50.792;4.352;2022-10-31T14:14:57;9.93;;;5.20;;
22468;SDS011;11401;50.792;4.352;2022-10-31T14:17:54;9.75;;;4.70;;
22468;SDS011;11401;50.792;4.352;2022-10-31T14:28:55;10.30;;;4.00;;
22468;SDS011;11401;50.792;4.352;2022-10-31T14:31:39;10.88;;;4.70;;
22468;SDS011;11401;50.792;4.352;2022-10-31T14:34:18;6.40;;;4.55;;
22468;SDS011;11401;50.792;4.352;2022-10-31T14:51:47;6.20;;;3.90;;
22468;SDS011;11401;50.792;4.352;2022-10-31T14:54:35;6.28;;;4.00;;
22468;SDS011;11401;50.792;4.352;2022-10-31T14:57:12;5.38;;;4.28;;
22468;SDS011;11401;50.792;4.352;2022-10-31T14:59:44;8.90;;;5.20;;
22468;SDS011;11401;50.792;4.352;2022-10-31T15:02:23;7.35;;;4.20;;
22468;SDS011;11401;50.792;4.352;2022-10-31T15:04:54;10.10;;;4.90;;
22468;SDS011;11401;50.792;4.352;2022-10-31T15:07:23;9.73;;;4.55;;
22468;SDS011;11401;50.792;4.352;2022-10-31T15:09:56;8.40;;;4.20;;
22468;SDS011;11401;50.792;4.352;2022-10-31T15:15:09;6.85;;;4.32;;
22468;SDS011;11401;50.792;4.352;2022-10-31T15:17:41;4.07;;;3.55;;
22468;SDS011;11401;50.792;4.352;2022-10-31T15:20:11;5.07;;;4.05;;
22468;SDS011;11401;50.792;4.352;2022-10-31T15:22:43;5.53;;;3.65;;
22468;SDS011;11401;50.792;4.352;2022-10-31T15:25:20;6.82;;;4.25;;
22468;SDS011;11401;50.792;4.352;2022-10-31T15:27:49;11.80;;;4.97;;
22468;SDS011;11401;50.792;4.352;2022-10-31T15:30:20;6.95;;;3.78;;
22468;SDS011;11401;50.792;4.352;2022-10-31T15:32:48;6.63;;;3.63;;
22468;SDS011;11401;50.792;4.352;2022-10-31T15:35:25;9.20;;;4.20;;
22468;SDS011;11401;50.792;4.352;2022-10-31T15:37:54;6.13;;;3.90;;
22468;SDS011;11401;50.792;4.352;2022-10-31T15:40:24;4.18;;;3.78;;
22468;SDS011;11401;50.792;4.352;2022-10-31T15:42:56;7.57;;;4.28;;
22468;SDS011;11401;50.792;4.352;2022-10-31T15:45:28;4.82;;;4.35;;
22468;SDS011;11401;50.792;4.352;2022-10-31T15:47:57;9.07;;;4.32;;
22468;SDS011;11401;50.792;4.352;2022-10-31T15:53:13;10.90;;;5.20;;
22468;SDS011;11401;50.792;4.352;2022-10-31T15:55:52;9.95;;;4.80;;
22468;SDS011;11401;50.792;4.352;2022-10-31T15:58:22;8.75;;;4.78;;
22468;SDS011;11401;50.792;4.352;2022-10-31T16:01:04;7.13;;;4.80;;
22468;SDS011;11401;50.792;4.352;2022-10-31T16:03:54;7.55;;;5.07;;
22468;SDS011;11401;50.792;4.352;2022-10-31T16:06:27;5.78;;;4.63;;
22468;SDS011;11401;50.792;4.352;2022-10-31T16:08:55;12.02;;;5.00;;
22468;SDS011;11401;50.792;4.352;2022-10-31T16:11:29;6.22;;;4.53;;
22468;SDS011;11401;50.792;4.352;2022-10-31T16:14:05;7.43;;;4.47;;
22468;SDS011;11401;50.792;4.352;2022-10-31T16:16:48;5.65;;;4.38;;
22468;SDS011;11401;50.792;4.352;2022-10-31T16:19:45;10.23;;;5.25;;
22468;SDS011;11401;50.792;4.352;2022-10-31T16:22:28;6.93;;;4.78;;
22468;SDS011;11401;50.792;4.352;2022-10-31T16:25:04;9.68;;;4.65;;
22468;SDS011;11401;50.792;4.352;2022-10-31T16:27:35;11.07;;;5.03;;
22468;SDS011;11401;50.792;4.352;2022-10-31T16:38:00;8.52;;;5.63;;
22468;SDS011;11401;50.792;4.352;2022-10-31T16:40:28;15.65;;;5.18;;
22468;SDS011;11401;50.792;4.352;2022-10-31T16:42:56;10.63;;;5.82;;
22468;SDS011;11401;50.792;4.352;2022-10-31T16:45:29;8.38;;;4.72;;
22468;SDS011;11401;50.792;4.352;2022-10-31T16:48:05;9.27;;;5.25;;
22468;SDS011;11401;50.792;4.352;2022-10-31T16:50:36;10.65;;;5.28;;
22468;SDS011;11401;50.792;4.352;2022-10-31T16:53:04;8.60;;;5.25;;
22468;SDS011;11401;50.792;4.352;2022-10-31T16:55:55;9.95;;;4.72;;
22468;SDS011;11401;50.792;4.352;2022-10-31T17:00:54;8.10;;;4.78;;
22468;SDS011;11401;50.792;4.352;2022-10-31T17:03:21;8.40;;;5.20;;
22468;SDS011;11401;50.792;4.352;2022-10-31T17:05:48;9.15;;;5.28;;
22468;SDS011;11401;50.792;4.352;2022-10-31T17:08:15;9.40;;;5.20;;
22468;SDS011;11401;50.792;4.352;2022-10-31T17:10:43;8.23;;;5.00;;
22468;SDS011;11401;50.792;4.352;2022-10-31T17:13:20;8.73;;;4.75;;
22468;SDS011;11401;50.792;4.352;2022-10-31T17:15:52;8.48;;;4.85;;
22468;SDS011;11401;50.792;4.352;2022-10-31T17:18:21;11.07;;;4.63;;
22468;SDS011;11401;50.792;4.352;2022-10-31T17:21:00;11.98;;;4.82;;
22468;SDS011;11401;50.792;4.352;2022-10-31T17:23:35;8.02;;;4.90;;
22468;SDS011;11401;50.792;4.352;2022-10-31T17:26:04;10.45;;;5.13;;
22468;SDS011;11401;50.792;4.352;2022-10-31T17:28:32;8.45;;;4.80;;
22468;SDS011;11401;50.792;4.352;2022-10-31T17:30:59;6.43;;;4.78;;
22468;SDS011;11401;50.792;4.352;2022-10-31T17:33:27;9.18;;;4.90;;
22468;SDS011;11401;50.792;4.352;2022-10-31T17:35:54;9.73;;;5.20;;
22468;SDS011;11401;50.792;4.352;2022-10-31T17:38:21;9.82;;;5.18;;
22468;SDS011;11401;50.792;4.352;2022-10-31T17:40:47;7.90;;;4.47;;
22468;SDS011;11401;50.792;4.352;2022-10-31T17:43:14;9.35;;;4.63;;
22468;SDS011;11401;50.792;4.352;2022-10-31T17:45:41;13.98;;;5.22;;